createdAt,value
2023-01-31T00:00:41.000Z,1016.6
2023-01-31T00:01:57.000Z,1016.6
2023-01-31T00:03:13.000Z,1016.6
2023-01-31T00:04:30.000Z,1016.5
2023-01-31T00:05:45.000Z,1016.5
2023-01-31T00:07:01.000Z,1016.5
2023-01-31T00:08:17.000Z,1016.5
2023-01-31T00:09:34.000Z,1016.5
2023-01-31T00:10:50.000Z,1016.5
2023-01-31T00:12:06.000Z,1016.5
2023-01-31T00:13:23.000Z,1016.6
2023-01-31T00:14:39.000Z,1016.6
2023-01-31T00:15:55.000Z,1016.6
2023-01-31T00:17:12.000Z,1016.6
2023-01-31T00:18:28.000Z,1016.6
2023-01-31T00:19:44.000Z,1016.6
2023-01-31T00:21:01.121Z,1016.6
2023-01-31T00:22:16.000Z,1016.6
2023-01-31T00:23:32.000Z,1016.6
2023-01-31T00:24:48.000Z,1016.5
2023-01-31T00:26:05.000Z,1016.5
2023-01-31T00:27:21.000Z,1016.6
2023-01-31T00:28:37.865Z,1016.5
2023-01-31T00:29:53.000Z,1016.5
2023-01-31T00:31:10.000Z,1016.5
2023-01-31T00:32:26.000Z,1016.5
2023-01-31T00:33:42.000Z,1016.5
2023-01-31T00:34:59.000Z,1016.6
2023-01-31T00:36:15.000Z,1016.5
2023-01-31T00:37:31.000Z,1016.5
2023-01-31T00:38:46.000Z,1016.5
2023-01-31T00:40:03.000Z,1016.5
2023-01-31T00:41:19.000Z,1016.5
2023-01-31T00:42:35.000Z,1016.5
2023-01-31T00:43:52.000Z,1016.6
2023-01-31T00:45:08.614Z,1016.5
2023-01-31T00:46:24.000Z,1016.5
2023-01-31T00:47:40.000Z,1016.5
2023-01-31T00:48:57.000Z,1016.3
2023-01-31T00:50:13.000Z,1016.5
2023-01-31T00:51:29.000Z,1016.5
2023-01-31T00:52:46.000Z,1016.5
2023-01-31T00:54:02.000Z,1016.6
2023-01-31T00:55:17.000Z,1016.6
2023-01-31T00:56:33.000Z,1016.6
2023-01-31T00:57:50.000Z,1016.6
2023-01-31T00:59:06.000Z,1016.6
2023-01-31T01:00:22.000Z,1016.6
2023-01-31T01:01:39.000Z,1016.6
2023-01-31T01:02:55.000Z,1016.6
2023-01-31T01:04:11.000Z,1016.6
2023-01-31T01:05:27.000Z,1016.6
2023-01-31T01:06:42.000Z,1016.6
2023-01-31T01:07:58.000Z,1016.6
2023-01-31T01:09:14.000Z,1016.5
2023-01-31T01:10:31.000Z,1016.6
2023-01-31T01:11:47.000Z,1016.6
2023-01-31T01:13:02.000Z,1016.5
2023-01-31T01:14:18.000Z,1016.6
2023-01-31T01:15:34.000Z,1016.6
2023-01-31T01:16:50.000Z,1016.6
2023-01-31T01:18:06.000Z,1016.6
2023-01-31T01:19:23.000Z,1016.6
2023-01-31T01:20:39.000Z,1016.6
2023-01-31T01:21:55.000Z,1016.6
2023-01-31T01:23:12.000Z,1016.6
2023-01-31T01:24:28.000Z,1016.6
2023-01-31T01:25:44.000Z,1016.6
2023-01-31T01:27:01.435Z,1016.6
2023-01-31T01:28:17.000Z,1016.6
2023-01-31T01:29:33.000Z,1016.5
2023-01-31T01:30:49.100Z,1016.5
2023-01-31T01:32:05.000Z,1016.5
2023-01-31T01:33:21.000Z,1016.5
2023-01-31T01:34:37.000Z,1016.5
2023-01-31T01:35:54.241Z,1016.5
2023-01-31T01:37:10.000Z,1016.6
2023-01-31T01:38:26.000Z,1016.6
2023-01-31T01:39:41.000Z,1016.6
2023-01-31T01:40:57.000Z,1016.6
2023-01-31T01:42:13.000Z,1016.6
2023-01-31T01:43:28.000Z,1016.7
2023-01-31T01:44:44.000Z,1016.6
2023-01-31T01:46:00.000Z,1016.6
2023-01-31T01:47:16.000Z,1016.6
2023-01-31T01:48:33.202Z,1016.6
2023-01-31T01:49:49.000Z,1016.5
2023-01-31T01:51:05.000Z,1016.5
2023-01-31T01:52:21.000Z,1016.5
2023-01-31T01:53:38.000Z,1016.5
2023-01-31T01:54:54.000Z,1016.5
2023-01-31T01:56:10.000Z,1016.6
2023-01-31T01:57:26.000Z,1016.6
2023-01-31T01:58:43.000Z,1016.6
2023-01-31T01:59:59.805Z,1016.5
2023-01-31T02:01:14.000Z,1016.6
2023-01-31T02:02:31.000Z,1016.5
2023-01-31T02:03:47.000Z,1016.6
2023-01-31T02:05:03.000Z,1016.6
2023-01-31T02:06:20.000Z,1016.6
2023-01-31T02:07:36.000Z,1016.6
2023-01-31T02:08:52.000Z,1016.6
2023-01-31T02:10:08.000Z,1016.7
2023-01-31T02:11:25.000Z,1016.7
2023-01-31T02:12:41.000Z,1016.7
2023-01-31T02:13:57.990Z,1016.7
2023-01-31T02:15:14.000Z,1016.8
2023-01-31T02:16:30.563Z,1016.8
2023-01-31T02:17:45.907Z,1016.8
2023-01-31T02:19:01.000Z,1016.8
2023-01-31T02:20:18.000Z,1016.9
2023-01-31T02:21:34.000Z,1016.9
2023-01-31T02:22:50.000Z,1016.8
2023-01-31T02:24:07.000Z,1016.9
2023-01-31T02:25:23.000Z,1017
2023-01-31T02:26:39.000Z,1017
2023-01-31T02:27:55.000Z,1017
2023-01-31T02:29:12.000Z,1016.9
2023-01-31T02:30:28.000Z,1017
2023-01-31T02:31:44.000Z,1017
2023-01-31T02:33:01.000Z,1017
2023-01-31T02:34:16.000Z,1017
2023-01-31T02:35:32.000Z,1016.9
2023-01-31T02:36:48.000Z,1016.9
2023-01-31T02:38:05.000Z,1016.8
2023-01-31T02:39:21.791Z,1016.9
2023-01-31T02:40:37.000Z,1017
2023-01-31T02:41:54.336Z,1017
2023-01-31T02:43:10.000Z,1017
2023-01-31T02:44:26.000Z,1017
2023-01-31T02:45:43.216Z,1017
2023-01-31T02:46:59.000Z,1016.9
2023-01-31T02:48:15.000Z,1017
2023-01-31T02:49:31.000Z,1016.9
2023-01-31T02:50:47.000Z,1016.8
2023-01-31T02:52:03.000Z,1016.8
2023-01-31T02:53:19.000Z,1016.8
2023-01-31T02:54:36.000Z,1016.8
2023-01-31T02:55:52.000Z,1016.9
2023-01-31T02:57:08.000Z,1016.9
2023-01-31T02:58:24.000Z,1016.9
2023-01-31T02:59:41.380Z,1016.9
2023-01-31T03:00:57.000Z,1016.9
2023-01-31T03:02:13.000Z,1016.9
2023-01-31T03:03:30.000Z,1016.7
2023-01-31T03:04:46.555Z,1016.7
2023-01-31T03:06:02.000Z,1016.6
2023-01-31T03:07:17.000Z,1016.6
2023-01-31T03:08:34.000Z,1016.6
2023-01-31T03:09:50.000Z,1016.6
2023-01-31T03:11:06.000Z,1016.5
2023-01-31T03:12:23.000Z,1016.5
2023-01-31T03:13:39.000Z,1016.5
2023-01-31T03:14:55.000Z,1016.5
2023-01-31T03:16:12.170Z,1016.4
2023-01-31T03:17:28.000Z,1016.4
2023-01-31T03:18:44.000Z,1016.4
2023-01-31T03:20:00.000Z,1016.4
2023-01-31T03:21:17.000Z,1016.4
2023-01-31T03:22:33.000Z,1016.3
2023-01-31T03:23:48.887Z,1016.3
2023-01-31T03:25:04.000Z,1016.3
2023-01-31T03:26:21.000Z,1016.3
2023-01-31T03:27:37.000Z,1016.3
2023-01-31T03:28:53.000Z,1016.3
2023-01-31T03:30:10.355Z,1016.3
2023-01-31T03:31:26.000Z,1016.4
2023-01-31T03:32:42.000Z,1016.4
2023-01-31T03:33:59.183Z,1016.3
2023-01-31T03:35:15.000Z,1016.2
2023-01-31T03:36:31.000Z,1016.2
2023-01-31T03:37:47.000Z,1016.2
2023-01-31T03:39:04.361Z,1016.2
2023-01-31T03:40:19.000Z,1016.2
2023-01-31T03:41:35.000Z,1016.2
2023-01-31T03:42:51.000Z,1016.2
2023-01-31T03:44:08.000Z,1016.2
2023-01-31T03:45:24.000Z,1016.2
2023-01-31T03:46:40.000Z,1016.1
2023-01-31T03:47:56.000Z,1016.1
2023-01-31T03:49:12.000Z,1016
2023-01-31T03:50:28.000Z,1016.1
2023-01-31T03:51:45.000Z,1016.1
2023-01-31T03:53:01.000Z,1016.1
2023-01-31T03:54:17.000Z,1016
2023-01-31T03:55:34.112Z,1016
2023-01-31T03:56:50.000Z,1016
2023-01-31T03:58:06.000Z,1016
2023-01-31T03:59:22.000Z,1016
2023-01-31T04:00:39.000Z,1016
2023-01-31T04:01:55.000Z,1016
2023-01-31T04:03:11.847Z,1016
2023-01-31T04:04:26.000Z,1016
2023-01-31T04:05:43.000Z,1015.9
2023-01-31T04:06:59.719Z,1015.9
2023-01-31T04:08:15.000Z,1015.9
2023-01-31T04:09:32.000Z,1015.9
2023-01-31T04:10:48.000Z,1015.9
2023-01-31T04:12:04.000Z,1015.9
2023-01-31T04:13:20.000Z,1015.9
2023-01-31T04:14:37.000Z,1015.9
2023-01-31T04:15:53.000Z,1015.9
2023-01-31T04:17:09.000Z,1015.9
2023-01-31T04:18:26.000Z,1015.9
2023-01-31T04:19:42.000Z,1015.9
2023-01-31T04:20:57.925Z,1015.8
2023-01-31T04:22:13.000Z,1015.8
2023-01-31T04:23:30.500Z,1015.8
2023-01-31T04:24:46.000Z,1015.8
2023-01-31T04:26:02.000Z,1015.8
2023-01-31T04:27:19.000Z,1015.8
2023-01-31T04:28:35.000Z,1015.8
2023-01-31T04:29:51.926Z,1015.7
2023-01-31T04:31:08.235Z,1015.7
2023-01-31T04:32:24.000Z,1015.8
2023-01-31T04:33:39.000Z,1015.8
2023-01-31T04:34:54.000Z,1015.8
2023-01-31T04:36:11.000Z,1015.7
2023-01-31T04:37:27.000Z,1015.8
2023-01-31T04:39:59.000Z,1015.8
2023-01-31T04:41:14.000Z,1015.9
2023-01-31T04:42:29.000Z,1015.9
2023-01-31T04:43:45.000Z,1015.9
2023-01-31T04:45:02.000Z,1015.9
2023-01-31T04:46:18.793Z,1015.9
2023-01-31T04:47:34.000Z,1015.9
2023-01-31T04:48:51.000Z,1015.9
2023-01-31T04:50:07.000Z,1015.9
2023-01-31T04:51:23.000Z,1015.9
2023-01-31T04:52:39.000Z,1015.9
2023-01-31T04:53:56.000Z,1015.9
2023-01-31T04:55:12.000Z,1015.8
2023-01-31T04:56:28.000Z,1015.8
2023-01-31T04:57:45.000Z,1015.9
2023-01-31T04:59:00.674Z,1015.9
2023-01-31T05:00:16.000Z,1015.8
2023-01-31T05:01:33.000Z,1015.8
2023-01-31T05:02:49.000Z,1015.7
2023-01-31T05:04:05.000Z,1015.6
2023-01-31T05:05:21.000Z,1015.6
2023-01-31T05:06:38.408Z,1015.6
2023-01-31T05:07:54.000Z,1015.6
2023-01-31T05:09:10.000Z,1015.5
2023-01-31T05:11:43.000Z,1015.3
2023-01-31T05:12:59.000Z,1015.3
2023-01-31T05:14:15.000Z,1015.3
2023-01-31T05:15:31.000Z,1015.3
2023-01-31T05:16:47.000Z,1015.3
2023-01-31T05:18:03.000Z,1015.3
2023-01-31T05:19:20.000Z,1015.2
2023-01-31T05:20:36.000Z,1015.1
2023-01-31T05:21:52.000Z,1015
2023-01-31T05:23:08.000Z,1015
2023-01-31T05:24:25.000Z,1015
2023-01-31T05:25:41.000Z,1015
2023-01-31T05:26:57.000Z,1015
2023-01-31T05:28:14.000Z,1014.9
2023-01-31T05:29:30.000Z,1014.9
2023-01-31T05:30:46.000Z,1015
2023-01-31T05:32:01.000Z,1014.9
2023-01-31T05:33:18.498Z,1014.9
2023-01-31T05:34:34.000Z,1014.9
2023-01-31T05:35:51.092Z,1014.9
2023-01-31T05:37:07.352Z,1014.9
2023-01-31T05:38:23.000Z,1014.9
2023-01-31T05:39:39.000Z,1014.9
2023-01-31T05:40:55.000Z,1014.9
2023-01-31T05:42:12.513Z,1014.9
2023-01-31T05:43:28.000Z,1014.9
2023-01-31T05:44:44.000Z,1014.9
2023-01-31T05:46:01.000Z,1014.9
2023-01-31T05:47:17.000Z,1014.8
2023-01-31T05:48:32.000Z,1014.8
2023-01-31T05:49:49.257Z,1014.7
2023-01-31T05:51:05.000Z,1014.7
2023-01-31T05:52:21.000Z,1014.6
2023-01-31T05:53:38.108Z,1014.6
2023-01-31T05:54:54.000Z,1014.4
2023-01-31T05:56:10.000Z,1014.5
2023-01-31T05:57:26.000Z,1014.5
2023-01-31T05:58:43.000Z,1014.5
2023-01-31T05:59:59.000Z,1014.4
2023-01-31T06:01:15.000Z,1014.4
2023-01-31T06:02:31.000Z,1014.3
2023-01-31T06:03:48.400Z,1014.3
2023-01-31T06:05:03.000Z,1014.4
2023-01-31T06:06:19.000Z,1014.4
2023-01-31T06:07:36.000Z,1014.4
2023-01-31T06:08:52.561Z,1014.4
2023-01-31T06:10:08.000Z,1014.5
2023-01-31T06:11:24.000Z,1014.4
2023-01-31T06:12:41.000Z,1014.6
2023-01-31T06:13:57.000Z,1014.5
2023-01-31T06:15:13.000Z,1014.6
2023-01-31T06:16:30.000Z,1014.6
2023-01-31T06:17:46.000Z,1014.6
2023-01-31T06:19:02.000Z,1014.6
2023-01-31T06:20:18.000Z,1014.6
2023-01-31T06:21:34.000Z,1014.6
2023-01-31T06:22:50.000Z,1014.7
2023-01-31T06:24:06.000Z,1014.7
2023-01-31T06:25:23.000Z,1014.7
2023-01-31T06:26:39.000Z,1014.7
2023-01-31T06:27:55.922Z,1014.7
2023-01-31T06:29:11.000Z,1014.7
2023-01-31T06:30:28.000Z,1014.8
2023-01-31T06:31:44.000Z,1014.8
2023-01-31T06:33:00.000Z,1014.7
2023-01-31T06:34:17.000Z,1014.6
2023-01-31T06:35:33.000Z,1014.6
2023-01-31T06:36:49.842Z,1014.6
2023-01-31T06:38:04.000Z,1014.5
2023-01-31T06:39:21.362Z,1014.6
2023-01-31T06:40:37.663Z,1014.6
2023-01-31T06:41:53.000Z,1014.6
2023-01-31T06:43:09.000Z,1014.7
2023-01-31T06:44:26.000Z,1014.6
2023-01-31T06:45:42.000Z,1014.6
2023-01-31T06:46:58.000Z,1014.7
2023-01-31T06:48:15.000Z,1014.7
2023-01-31T06:49:31.000Z,1014.7
2023-01-31T06:50:47.000Z,1014.7
2023-01-31T06:52:03.000Z,1014.7
2023-01-31T06:53:20.200Z,1014.8
2023-01-31T06:54:35.435Z,1014.7
2023-01-31T06:55:51.000Z,1014.7
2023-01-31T06:57:07.000Z,1014.7
2023-01-31T06:58:23.000Z,1014.6
2023-01-31T06:59:40.000Z,1014.8
2023-01-31T07:00:56.000Z,1014.7
2023-01-31T07:02:12.000Z,1014.7
2023-01-31T07:03:28.000Z,1014.8
2023-01-31T07:04:45.311Z,1014.7
2023-01-31T07:06:01.000Z,1014.7
2023-01-31T07:07:17.000Z,1014.6
2023-01-31T07:08:33.000Z,1014.6
2023-01-31T07:09:49.000Z,1014.7
2023-01-31T07:11:05.000Z,1014.7
2023-01-31T07:12:21.000Z,1014.7
2023-01-31T07:13:37.000Z,1014.6
2023-01-31T07:14:54.191Z,1014.6
2023-01-31T07:16:10.415Z,1014.6
2023-01-31T07:17:26.000Z,1014.5
2023-01-31T07:18:42.897Z,1014.5
2023-01-31T07:19:58.000Z,1014.6
2023-01-31T07:21:15.000Z,1014.6
2023-01-31T07:22:31.000Z,1014.5
2023-01-31T07:23:47.000Z,1014.5
2023-01-31T07:25:03.000Z,1014.5
2023-01-31T07:26:20.000Z,1014.4
2023-01-31T07:27:36.000Z,1014.5
2023-01-31T07:28:51.000Z,1014.4
2023-01-31T07:30:07.000Z,1014.5
2023-01-31T07:31:24.230Z,1014.4
2023-01-31T07:32:40.000Z,1014.5
2023-01-31T07:33:56.000Z,1014.5
2023-01-31T07:35:12.000Z,1014.5
2023-01-31T07:36:28.000Z,1014.5
2023-01-31T07:37:45.000Z,1014.5
2023-01-31T07:39:01.000Z,1014.5
2023-01-31T07:40:17.000Z,1014.4
2023-01-31T07:41:33.000Z,1014.4
2023-01-31T07:42:50.000Z,1014.4
2023-01-31T07:44:06.000Z,1014.4
2023-01-31T07:45:21.000Z,1014.4
2023-01-31T07:46:38.073Z,1014.4
2023-01-31T07:47:54.000Z,1014.3
2023-01-31T07:49:10.000Z,1014.4
2023-01-31T07:50:26.000Z,1014.3
2023-01-31T07:51:42.000Z,1014.4
2023-01-31T07:52:58.000Z,1014.4
2023-01-31T07:54:15.000Z,1014.3
2023-01-31T07:55:31.000Z,1014.3
2023-01-31T07:56:47.000Z,1014.3
2023-01-31T07:58:03.000Z,1014.3
2023-01-31T07:59:20.000Z,1014.3
2023-01-31T08:00:36.000Z,1014.3
2023-01-31T08:01:51.000Z,1014.2
2023-01-31T08:03:06.000Z,1014.2
2023-01-31T08:04:23.000Z,1014.2
2023-01-31T08:05:39.000Z,1014.2
2023-01-31T08:06:55.000Z,1014.2
2023-01-31T08:08:11.000Z,1014.1
2023-01-31T08:09:28.314Z,1014.2
2023-01-31T08:10:44.000Z,1014.1
2023-01-31T08:12:00.000Z,1014.1
2023-01-31T08:13:16.000Z,1014.1
2023-01-31T08:14:33.000Z,1014
2023-01-31T08:15:49.000Z,1014.1
2023-01-31T08:17:05.000Z,1014
2023-01-31T08:18:21.000Z,1014
2023-01-31T08:19:37.204Z,1014.1
2023-01-31T08:20:53.000Z,1014
2023-01-31T08:22:09.000Z,1014
2023-01-31T08:23:25.000Z,1013.9
2023-01-31T08:24:41.000Z,1013.8
2023-01-31T08:25:58.000Z,1013.8
2023-01-31T08:27:14.000Z,1013.8
2023-01-31T08:28:30.000Z,1013.9
2023-01-31T08:29:46.000Z,1013.9
2023-01-31T08:31:03.000Z,1014
2023-01-31T08:32:19.000Z,1013.9
2023-01-31T08:33:35.768Z,1014
2023-01-31T08:34:51.000Z,1013.8
2023-01-31T08:36:07.000Z,1013.9
2023-01-31T08:37:23.000Z,1013.8
2023-01-31T08:38:39.000Z,1013.7
2023-01-31T08:39:55.000Z,1013.6
2023-01-31T08:41:11.000Z,1013.6
2023-01-31T08:42:28.000Z,1013.6
2023-01-31T08:43:44.000Z,1013.5
2023-01-31T08:45:00.000Z,1013.5
2023-01-31T08:46:16.000Z,1013.5
2023-01-31T08:47:33.000Z,1013.6
2023-01-31T08:48:49.000Z,1013.6
2023-01-31T08:50:05.000Z,1013.6
2023-01-31T08:51:21.000Z,1013.5
2023-01-31T08:52:37.000Z,1013.5
2023-01-31T08:53:53.537Z,1013.4
2023-01-31T08:55:09.000Z,1013.4
2023-01-31T08:56:25.996Z,1013.4
2023-01-31T08:57:42.000Z,1013.5
2023-01-31T08:58:58.000Z,1013.4
2023-01-31T09:01:30.000Z,1013.4
2023-01-31T09:02:46.000Z,1013.3
2023-01-31T09:04:03.000Z,1013.3
2023-01-31T09:05:19.000Z,1013.3
2023-01-31T09:06:35.000Z,1013.3
2023-01-31T09:07:51.000Z,1013.3
2023-01-31T09:09:07.369Z,1013.3
2023-01-31T09:10:23.000Z,1013.4
2023-01-31T09:11:39.000Z,1013.3
2023-01-31T09:12:55.000Z,1013.2
2023-01-31T09:14:12.000Z,1013.2
2023-01-31T09:15:28.000Z,1013.3
2023-01-31T09:16:44.000Z,1013.2
2023-01-31T09:18:00.000Z,1013.1
2023-01-31T09:19:17.000Z,1013.2
2023-01-31T09:20:33.000Z,1013.2
2023-01-31T09:21:49.000Z,1013.1
2023-01-31T09:23:05.000Z,1013.1
2023-01-31T09:24:22.183Z,1013.2
2023-01-31T09:25:37.000Z,1013.2
2023-01-31T09:26:53.000Z,1013.2
2023-01-31T09:28:09.876Z,1013.2
2023-01-31T09:29:26.135Z,1013.2
2023-01-31T09:30:42.000Z,1013.3
2023-01-31T09:31:58.000Z,1013.2
2023-01-31T09:33:14.000Z,1013.2
2023-01-31T09:34:30.000Z,1013.3
2023-01-31T09:35:47.000Z,1013.3
2023-01-31T09:37:03.539Z,1013.1
2023-01-31T09:39:35.000Z,1013.3
2023-01-31T09:40:51.000Z,1013.2
2023-01-31T09:42:07.000Z,1013.1
2023-01-31T09:43:23.000Z,1013.1
2023-01-31T09:44:39.000Z,1013.1
2023-01-31T09:45:55.000Z,1013.1
2023-01-31T09:47:12.000Z,1013
2023-01-31T09:48:28.000Z,1013
2023-01-31T09:49:44.000Z,1013
2023-01-31T09:52:17.000Z,1013
2023-01-31T09:53:33.000Z,1012.9
2023-01-31T09:54:49.000Z,1013
2023-01-31T09:56:05.000Z,1013
2023-01-31T09:57:22.000Z,1013
2023-01-31T09:58:37.000Z,1013
2023-01-31T09:59:53.000Z,1013
2023-01-31T10:01:09.000Z,1013
2023-01-31T10:02:25.000Z,1013
2023-01-31T10:03:42.000Z,1013
2023-01-31T10:04:58.000Z,1013
2023-01-31T10:06:14.000Z,1013.1
2023-01-31T10:07:30.000Z,1013.1
2023-01-31T10:08:47.000Z,1013.1
2023-01-31T10:10:03.000Z,1013.2
2023-01-31T10:11:19.000Z,1013.2
2023-01-31T10:12:35.000Z,1013
2023-01-31T10:13:52.000Z,1013.1
2023-01-31T10:15:07.000Z,1013.1
2023-01-31T10:16:23.000Z,1013.2
2023-01-31T10:17:39.000Z,1013.1
2023-01-31T10:18:56.000Z,1013
2023-01-31T10:20:12.000Z,1013.1
2023-01-31T10:21:28.000Z,1013
2023-01-31T10:22:44.000Z,1013
2023-01-31T10:24:00.000Z,1013
2023-01-31T10:25:17.462Z,1012.9
2023-01-31T10:26:33.000Z,1012.9
2023-01-31T10:27:49.000Z,1012.9
2023-01-31T10:30:22.000Z,1012.9
2023-01-31T10:31:37.000Z,1012.8
2023-01-31T10:32:53.000Z,1012.8
2023-01-31T10:34:09.000Z,1012.8
2023-01-31T10:35:26.000Z,1012.8
2023-01-31T10:36:42.000Z,1012.8
2023-01-31T10:37:58.799Z,1012.7
2023-01-31T10:39:14.000Z,1012.7
2023-01-31T10:40:31.000Z,1012.7
2023-01-31T10:41:47.505Z,1012.6
2023-01-31T10:43:03.000Z,1012.6
2023-01-31T10:44:19.000Z,1012.5
2023-01-31T10:46:52.000Z,1012.6
2023-01-31T10:48:07.000Z,1012.5
2023-01-31T10:49:23.000Z,1012.5
2023-01-31T10:50:39.000Z,1012.5
2023-01-31T10:51:56.384Z,1012.5
2023-01-31T10:53:12.646Z,1012.7
2023-01-31T10:54:28.000Z,1012.6
2023-01-31T10:55:44.000Z,1012.6
2023-01-31T10:57:01.000Z,1012.6
2023-01-31T10:58:17.000Z,1012.6
2023-01-31T10:59:33.000Z,1012.6
2023-01-31T11:00:49.000Z,1012.5
2023-01-31T11:02:06.000Z,1012.5
2023-01-31T11:03:22.000Z,1012.5
2023-01-31T11:04:37.000Z,1012.5
2023-01-31T11:05:53.000Z,1012.5
2023-01-31T11:08:26.000Z,1012.5
2023-01-31T11:09:42.000Z,1012.4
2023-01-31T11:10:58.000Z,1012.4
2023-01-31T11:12:14.000Z,1012.4
2023-01-31T11:13:31.000Z,1012.4
2023-01-31T11:14:47.000Z,1012.3
2023-01-31T11:16:03.000Z,1012.3
2023-01-31T11:17:19.000Z,1012.3
2023-01-31T11:18:36.000Z,1012.3
2023-01-31T11:19:52.543Z,1012.3
2023-01-31T11:21:07.850Z,1012.2
2023-01-31T11:22:23.000Z,1012.2
2023-01-31T11:23:40.000Z,1012.2
2023-01-31T11:24:56.000Z,1012.1
2023-01-31T11:26:12.000Z,1012.1
2023-01-31T11:27:28.000Z,1012.2
2023-01-31T11:28:44.000Z,1012.1
2023-01-31T11:30:01.000Z,1012.1
2023-01-31T11:31:17.000Z,1012.1
2023-01-31T11:32:32.000Z,1012.1
2023-01-31T11:33:47.000Z,1012.1
2023-01-31T11:35:04.000Z,1012.2
2023-01-31T11:36:20.000Z,1012.1
2023-01-31T11:37:35.000Z,1012
2023-01-31T11:38:50.000Z,1012.1
2023-01-31T11:40:07.000Z,1012.2
2023-01-31T11:41:23.000Z,1012.2
2023-01-31T11:42:39.000Z,1012.1
2023-01-31T11:43:55.000Z,1012
2023-01-31T11:46:28.000Z,1012
2023-01-31T11:47:44.000Z,1012.1
2023-01-31T11:49:00.000Z,1012.1
2023-01-31T11:50:17.000Z,1012.1
2023-01-31T11:51:33.000Z,1012.1
2023-01-31T11:52:49.000Z,1012
2023-01-31T11:54:05.000Z,1012
2023-01-31T11:55:20.000Z,1012
2023-01-31T11:56:37.000Z,1011.9
2023-01-31T11:57:53.000Z,1011.8
2023-01-31T11:59:09.000Z,1011.8
2023-01-31T12:00:25.000Z,1011.8
2023-01-31T12:01:42.000Z,1011.8
2023-01-31T12:02:58.000Z,1011.7
2023-01-31T12:04:14.000Z,1011.5
2023-01-31T12:05:30.000Z,1011.6
2023-01-31T12:06:47.000Z,1011.6
2023-01-31T12:08:03.000Z,1011.6
2023-01-31T12:09:19.796Z,1011.5
2023-01-31T12:10:35.000Z,1011.4
2023-01-31T12:11:52.000Z,1011.4
2023-01-31T12:13:07.000Z,1011.4
2023-01-31T12:14:23.000Z,1011.5
2023-01-31T12:15:39.988Z,1011.4
2023-01-31T12:16:55.000Z,1011.4
2023-01-31T12:18:11.000Z,1011.4
2023-01-31T12:19:27.000Z,1011.3
2023-01-31T12:20:43.000Z,1011.3
2023-01-31T12:21:59.000Z,1011.3
2023-01-31T12:23:16.401Z,1011.3
2023-01-31T12:24:32.000Z,1011.3
2023-01-31T12:25:48.000Z,1011.4
2023-01-31T12:27:04.000Z,1011.2
2023-01-31T12:28:21.334Z,1011.3
2023-01-31T12:29:37.000Z,1011.4
2023-01-31T12:30:53.000Z,1011.3
2023-01-31T12:32:09.000Z,1011.2
2023-01-31T12:33:26.000Z,1011.4
2023-01-31T12:34:41.000Z,1011.4
2023-01-31T12:35:57.000Z,1011.3
2023-01-31T12:37:13.000Z,1011.3
2023-01-31T12:38:29.000Z,1011.3
2023-01-31T12:39:46.433Z,1011.2
2023-01-31T12:41:02.000Z,1011.3
2023-01-31T12:42:18.000Z,1011.3
2023-01-31T12:43:34.000Z,1011.3
2023-01-31T12:44:51.000Z,1011.3
2023-01-31T12:46:07.000Z,1011.2
2023-01-31T12:47:23.000Z,1011.3
2023-01-31T12:48:39.000Z,1011.2
2023-01-31T12:49:56.000Z,1011.2
2023-01-31T12:51:11.000Z,1011.2
2023-01-31T12:52:27.000Z,1011.3
2023-01-31T12:53:43.000Z,1011.3
2023-01-31T12:55:00.000Z,1011.4
2023-01-31T12:56:16.000Z,1011.3
2023-01-31T12:57:32.000Z,1011.4
2023-01-31T12:58:48.000Z,1011.4
2023-01-31T13:00:04.000Z,1011.5
2023-01-31T13:02:37.000Z,1011.4
2023-01-31T13:03:53.000Z,1011.4
2023-01-31T13:05:09.000Z,1011.4
2023-01-31T13:06:26.000Z,1011.4
2023-01-31T13:07:41.000Z,1011.4
2023-01-31T13:08:57.000Z,1011.4
2023-01-31T13:10:13.000Z,1011.4
2023-01-31T13:11:30.000Z,1011.4
2023-01-31T13:12:46.000Z,1011.4
2023-01-31T13:14:02.799Z,1011.4
2023-01-31T13:15:19.007Z,1011.3
2023-01-31T13:16:35.000Z,1011.4
2023-01-31T13:17:51.000Z,1011.4
2023-01-31T13:19:07.000Z,1011.4
2023-01-31T13:20:23.000Z,1011.5
2023-01-31T13:21:39.000Z,1011.4
2023-01-31T13:22:56.000Z,1011.4
2023-01-31T13:24:11.000Z,1011.3
2023-01-31T13:25:27.000Z,1011.4
2023-01-31T13:26:43.000Z,1011.3
2023-01-31T13:28:00.000Z,1011.3
2023-01-31T13:29:16.000Z,1011.3
2023-01-31T13:30:32.000Z,1011.3
2023-01-31T13:31:48.000Z,1011.3
2023-01-31T13:33:05.314Z,1011.3
2023-01-31T13:34:21.000Z,1011.2
2023-01-31T13:35:37.000Z,1011.2
2023-01-31T13:36:53.000Z,1011.2
2023-01-31T13:38:10.000Z,1011.2
2023-01-31T13:39:26.000Z,1011.2
2023-01-31T13:40:41.000Z,1011.3
2023-01-31T13:41:57.000Z,1011.2
2023-01-31T13:43:13.000Z,1011.2
2023-01-31T13:44:30.000Z,1011.1
2023-01-31T13:45:46.000Z,1011.2
2023-01-31T13:47:02.000Z,1011.1
2023-01-31T13:48:18.000Z,1011.2
2023-01-31T13:49:35.000Z,1011.2
2023-01-31T13:50:51.000Z,1011.2
2023-01-31T13:52:07.834Z,1011.2
2023-01-31T13:53:23.000Z,1011.2
2023-01-31T13:54:40.000Z,1011.3
2023-01-31T13:55:56.000Z,1011.2
2023-01-31T13:57:11.000Z,1011.2
2023-01-31T13:58:27.000Z,1011.3
2023-01-31T13:59:44.000Z,1011.2
2023-01-31T14:01:00.000Z,1011.2
2023-01-31T14:02:16.707Z,1011.1
2023-01-31T14:03:32.000Z,1011.1
2023-01-31T14:04:48.000Z,1011
2023-01-31T14:06:05.000Z,1011
2023-01-31T14:07:21.000Z,1011.1
2023-01-31T14:08:37.881Z,1011.1
2023-01-31T14:09:53.000Z,1011.2
2023-01-31T14:11:10.000Z,1011.1
2023-01-31T14:12:26.000Z,1011.2
2023-01-31T14:13:41.000Z,1011.2
2023-01-31T14:14:57.000Z,1011.2
2023-01-31T14:16:14.000Z,1011.1
2023-01-31T14:17:30.000Z,1011.1
2023-01-31T14:18:46.000Z,1011.1
2023-01-31T14:20:02.000Z,1011
2023-01-31T14:21:19.248Z,1011.1
2023-01-31T14:22:35.000Z,1011.1
2023-01-31T14:23:51.000Z,1011.2
2023-01-31T14:25:07.000Z,1011.2
2023-01-31T14:26:23.000Z,1011.1
2023-01-31T14:27:40.000Z,1011.2
2023-01-31T14:28:56.000Z,1011.2
2023-01-31T14:31:27.000Z,1011.3
2023-01-31T14:32:44.000Z,1011.1
2023-01-31T14:34:00.000Z,1011.2
2023-01-31T14:35:16.000Z,1011.2
2023-01-31T14:36:32.000Z,1011.2
2023-01-31T14:37:49.000Z,1011.1
2023-01-31T14:39:05.549Z,1011.3
2023-01-31T14:40:21.000Z,1011.2
2023-01-31T14:41:37.000Z,1011.2
2023-01-31T14:42:54.227Z,1011.3
2023-01-31T14:44:10.468Z,1011.3
2023-01-31T14:45:26.000Z,1011.3
2023-01-31T14:46:41.000Z,1011.3
2023-01-31T14:47:57.000Z,1011.1
2023-01-31T14:49:14.000Z,1011.3
2023-01-31T14:50:30.000Z,1011.3
2023-01-31T14:51:46.000Z,1011.3
2023-01-31T14:53:02.000Z,1011.3
2023-01-31T14:54:19.000Z,1011.4
2023-01-31T14:55:35.000Z,1011.3
2023-01-31T14:56:51.000Z,1011.4
2023-01-31T14:58:07.000Z,1011.3
2023-01-31T14:59:24.000Z,1011.3
2023-01-31T15:00:40.507Z,1011.3
2023-01-31T15:01:56.000Z,1011.4
2023-01-31T15:03:11.000Z,1011.3
2023-01-31T15:04:27.000Z,1011.2
2023-01-31T15:05:44.000Z,1011.2
2023-01-31T15:07:00.000Z,1011.2
2023-01-31T15:08:16.000Z,1011.2
2023-01-31T15:09:32.000Z,1011.3
2023-01-31T15:10:49.000Z,1011.2
2023-01-31T15:12:05.000Z,1011.3
2023-01-31T15:13:21.000Z,1011.2
2023-01-31T15:14:37.000Z,1011.3
2023-01-31T15:15:54.000Z,1011.4
2023-01-31T15:17:10.000Z,1011.3
2023-01-31T15:18:26.000Z,1011.3
2023-01-31T15:19:41.000Z,1011.3
2023-01-31T15:20:58.276Z,1011.3
2023-01-31T15:22:14.000Z,1011.3
2023-01-31T15:23:30.000Z,1011.2
2023-01-31T15:24:46.992Z,1011.3
2023-01-31T15:26:02.000Z,1011.3
2023-01-31T15:27:19.000Z,1011.4
2023-01-31T15:28:35.000Z,1011.4
2023-01-31T15:29:51.000Z,1011.5
2023-01-31T15:31:07.000Z,1011.4
2023-01-31T15:32:24.000Z,1011.3
2023-01-31T15:34:56.000Z,1011.3
2023-01-31T15:36:12.097Z,1011.3
2023-01-31T15:37:28.000Z,1011.3
2023-01-31T15:38:44.000Z,1011.3
2023-01-31T15:40:00.000Z,1011.2
2023-01-31T15:41:16.000Z,1011.3
2023-01-31T15:42:33.282Z,1011.3
2023-01-31T15:43:49.000Z,1011.3
2023-01-31T15:45:05.000Z,1011.3
2023-01-31T15:46:21.000Z,1011.3
2023-01-31T15:47:38.198Z,1011.4
2023-01-31T15:48:54.000Z,1011.3
2023-01-31T15:50:10.000Z,1011.4
2023-01-31T15:51:26.000Z,1011.4
2023-01-31T15:52:41.000Z,1011.3
2023-01-31T15:53:58.000Z,1011.4
2023-01-31T15:55:14.000Z,1011.4
2023-01-31T15:56:30.000Z,1011.4
2023-01-31T15:57:46.000Z,1011.4
2023-01-31T15:59:03.000Z,1011.4
2023-01-31T16:00:19.000Z,1011.4
2023-01-31T16:01:35.000Z,1011.4
2023-01-31T16:02:51.000Z,1011.4
2023-01-31T16:04:08.000Z,1011.4
2023-01-31T16:05:24.000Z,1011.4
2023-01-31T16:06:40.000Z,1011.5
2023-01-31T16:07:56.000Z,1011.3
2023-01-31T16:09:11.000Z,1011.4
2023-01-31T16:10:28.000Z,1011.4